createdAt,value
2023-10-22T00:01:27.523Z,11.34
2023-10-22T00:04:00.190Z,11.34
2023-10-22T00:06:33.385Z,11.33
2023-10-22T00:09:06.099Z,11.30
2023-10-22T00:11:38.733Z,11.29
2023-10-22T00:14:11.198Z,11.29
2023-10-22T00:16:43.665Z,11.29
2023-10-22T00:19:16.183Z,11.29
2023-10-22T00:21:48.763Z,11.26
2023-10-22T00:24:21.476Z,11.24
2023-10-22T00:26:54.314Z,11.23
2023-10-22T00:29:26.843Z,11.21
2023-10-22T00:31:59.841Z,11.21
2023-10-22T00:34:32.647Z,11.20
2023-10-22T00:37:05.560Z,11.22
2023-10-22T00:39:38.347Z,11.22
2023-10-22T00:42:11.208Z,11.21
2023-10-22T00:44:44.188Z,11.21
2023-10-22T00:47:18.030Z,11.22
2023-10-22T00:49:51.368Z,11.21
2023-10-22T00:52:24.334Z,11.21
2023-10-22T00:54:57.572Z,11.21
2023-10-22T00:57:31.265Z,11.22
2023-10-22T01:00:03.820Z,11.23
2023-10-22T01:02:36.669Z,11.22
2023-10-22T01:05:11.505Z,11.22
2023-10-22T01:07:45.232Z,11.23
2023-10-22T01:10:17.876Z,11.22
2023-10-22T01:12:50.593Z,11.22
2023-10-22T01:15:23.110Z,11.22
2023-10-22T01:17:56.207Z,11.21
2023-10-22T01:20:28.988Z,11.17
2023-10-22T01:23:02.840Z,11.16
2023-10-22T01:25:36.940Z,11.19
2023-10-22T01:28:09.682Z,11.19
2023-10-22T01:30:43.290Z,11.18
2023-10-22T01:33:16.120Z,11.16
2023-10-22T01:35:48.667Z,11.15
2023-10-22T01:38:21.562Z,11.14
2023-10-22T01:40:53.985Z,11.13
2023-10-22T01:43:27.004Z,11.12
2023-10-22T01:45:59.644Z,11.11
2023-10-22T01:48:32.636Z,11.11
2023-10-22T01:51:05.479Z,11.09
2023-10-22T01:53:38.088Z,11.09
2023-10-22T01:56:11.748Z,11.10
2023-10-22T01:58:45.407Z,11.08
2023-10-22T02:01:18.247Z,11.07
2023-10-22T02:03:50.784Z,11.06
2023-10-22T02:06:23.546Z,11.04
2023-10-22T02:08:56.124Z,11.03
2023-10-22T02:11:29.453Z,11.03
2023-10-22T02:14:02.310Z,11.03
2023-10-22T02:16:35.281Z,11.02
2023-10-22T02:19:08.233Z,11.01
2023-10-22T02:21:40.979Z,11.00
2023-10-22T02:24:13.588Z,11.01
2023-10-22T02:26:46.287Z,11.01
2023-10-22T02:29:19.158Z,11.02
2023-10-22T02:31:51.592Z,11.02
2023-10-22T02:34:24.531Z,11.02
2023-10-22T02:36:56.953Z,11.02
2023-10-22T02:39:31.313Z,11.01
2023-10-22T02:42:03.757Z,11.00
2023-10-22T02:44:37.341Z,11.01
2023-10-22T02:47:11.271Z,11.01
2023-10-22T02:49:43.697Z,11.01
2023-10-22T02:52:16.270Z,11.00
2023-10-22T02:54:50.310Z,10.99
2023-10-22T02:57:22.770Z,10.99
2023-10-22T02:59:55.699Z,10.98
2023-10-22T03:02:28.364Z,10.99
2023-10-22T03:05:01.523Z,10.99
2023-10-22T03:07:34.088Z,10.99
2023-10-22T03:10:07.594Z,10.98
2023-10-22T03:12:40.062Z,10.96
2023-10-22T03:15:13.951Z,10.96
2023-10-22T03:17:46.539Z,10.94
2023-10-22T03:20:20.551Z,10.94
2023-10-22T03:22:53.360Z,10.94
2023-10-22T03:25:26.132Z,10.95
2023-10-22T03:27:58.628Z,10.94
2023-10-22T03:30:31.144Z,10.96
2023-10-22T03:33:05.147Z,10.96
2023-10-22T03:35:38.512Z,10.97
2023-10-22T03:38:12.333Z,10.99
2023-10-22T03:40:45.093Z,11.00
2023-10-22T03:43:17.578Z,11.01
2023-10-22T03:45:50.195Z,11.02
2023-10-22T03:48:22.848Z,11.03
2023-10-22T03:50:55.759Z,11.02
2023-10-22T03:53:28.439Z,11.01
2023-10-22T03:56:01.586Z,11.01
2023-10-22T03:58:34.582Z,10.99
2023-10-22T04:01:07.082Z,11.00
2023-10-22T04:03:39.753Z,11.01
2023-10-22T04:06:12.577Z,11.01
2023-10-22T04:08:45.136Z,11.01
2023-10-22T04:11:20.506Z,11.02
2023-10-22T04:13:53.004Z,11.02
2023-10-22T04:16:25.901Z,11.03
2023-10-22T04:18:58.317Z,11.02
2023-10-22T04:21:30.866Z,11.00
2023-10-22T04:24:03.919Z,11.00
2023-10-22T04:26:36.578Z,11.00
2023-10-22T04:29:09.077Z,11.00
2023-10-22T04:31:41.988Z,11.01
2023-10-22T04:34:14.979Z,11.01
2023-10-22T04:36:47.454Z,11.00
2023-10-22T04:39:19.904Z,11.00
2023-10-22T04:41:52.414Z,11.03
2023-10-22T04:44:25.297Z,11.03
2023-10-22T04:46:57.771Z,11.03
2023-10-22T04:49:33.114Z,11.03
2023-10-22T04:52:10.552Z,11.02
2023-10-22T04:54:43.386Z,11.03
2023-10-22T04:57:15.955Z,11.05
2023-10-22T04:59:49.004Z,11.06
2023-10-22T05:02:22.042Z,11.07
2023-10-22T05:04:55.590Z,11.09
2023-10-22T05:07:28.534Z,11.10
2023-10-22T05:10:01.118Z,11.12
2023-10-22T05:12:34.116Z,11.12
2023-10-22T05:15:09.738Z,11.13
2023-10-22T05:17:42.584Z,11.12
2023-10-22T05:20:16.373Z,11.12
2023-10-22T05:22:49.774Z,11.12
2023-10-22T05:25:23.343Z,11.13
2023-10-22T05:27:56.135Z,11.13
2023-10-22T05:30:29.138Z,11.14
2023-10-22T05:33:02.907Z,11.15
2023-10-22T05:35:38.780Z,11.16
2023-10-22T05:38:11.243Z,11.16
2023-10-22T05:40:43.679Z,11.18
2023-10-22T05:43:17.140Z,11.20
2023-10-22T05:45:58.078Z,11.20
2023-10-22T05:48:30.747Z,11.19
2023-10-22T05:51:05.389Z,11.20
2023-10-22T05:53:37.918Z,11.21
2023-10-22T05:56:11.300Z,11.23
2023-10-22T05:58:44.701Z,11.23
2023-10-22T06:01:18.738Z,11.24
2023-10-22T06:03:51.399Z,11.26
2023-10-22T06:06:25.117Z,11.27
2023-10-22T06:08:57.693Z,11.27
2023-10-22T06:11:30.174Z,11.28
2023-10-22T06:14:03.229Z,11.28
2023-10-22T06:16:36.602Z,11.29
2023-10-22T06:19:09.757Z,11.30
2023-10-22T06:21:42.490Z,11.30
2023-10-22T06:24:15.078Z,11.31
2023-10-22T06:26:47.654Z,11.32
2023-10-22T06:29:20.182Z,11.32
2023-10-22T06:31:53.000Z,11.34
2023-10-22T06:34:25.943Z,11.34
2023-10-22T06:36:58.518Z,11.35
2023-10-22T06:39:31.057Z,11.37
2023-10-22T06:42:04.694Z,11.36
2023-10-22T06:44:38.548Z,11.35
2023-10-22T06:47:11.502Z,11.37
2023-10-22T06:49:44.102Z,11.39
2023-10-22T06:52:17.169Z,11.41
2023-10-22T06:54:50.011Z,11.43
2023-10-22T06:57:22.779Z,11.44
2023-10-22T06:59:58.408Z,11.44
2023-10-22T07:02:30.967Z,11.45
2023-10-22T07:05:03.566Z,11.46
2023-10-22T07:07:36.030Z,11.50
2023-10-22T07:10:10.384Z,11.52
2023-10-22T07:12:42.889Z,11.55
2023-10-22T07:15:16.353Z,11.58
2023-10-22T07:17:49.460Z,11.59
2023-10-22T07:20:23.161Z,11.57
2023-10-22T07:22:55.673Z,11.59
2023-10-22T07:25:28.209Z,11.63
2023-10-22T07:28:00.746Z,11.65
2023-10-22T07:30:33.380Z,11.67
2023-10-22T07:33:06.015Z,11.70
2023-10-22T07:35:39.393Z,11.71
2023-10-22T07:38:11.931Z,11.72
2023-10-22T07:40:44.412Z,11.74
2023-10-22T07:43:17.566Z,11.78
2023-10-22T07:45:50.129Z,11.80
2023-10-22T07:48:23.254Z,11.82
2023-10-22T07:50:55.995Z,11.84
2023-10-22T07:53:28.568Z,11.82
2023-10-22T07:56:01.542Z,11.81
2023-10-22T08:01:07.933Z,11.86
2023-10-22T08:03:40.901Z,11.89
2023-10-22T08:06:13.668Z,11.90
2023-10-22T08:08:46.470Z,11.91
2023-10-22T08:11:19.104Z,11.91
2023-10-22T08:13:51.733Z,11.95
2023-10-22T08:16:24.320Z,11.95
2023-10-22T08:18:57.277Z,11.98
2023-10-22T08:21:30.210Z,12.02
2023-10-22T08:24:02.813Z,12.03
2023-10-22T08:26:35.586Z,12.07
2023-10-22T08:29:09.629Z,12.11
2023-10-22T08:31:42.394Z,12.11
2023-10-22T08:34:15.058Z,12.10
2023-10-22T08:36:47.871Z,12.15
2023-10-22T08:39:20.635Z,12.20
2023-10-22T08:42:01.749Z,12.25
2023-10-22T08:44:41.660Z,12.29
2023-10-22T08:47:14.669Z,12.30
2023-10-22T08:49:50.942Z,12.34
2023-10-22T08:52:23.608Z,12.36
2023-10-22T08:54:56.192Z,12.36
2023-10-22T08:57:30.498Z,12.35
2023-10-22T09:00:04.133Z,12.33
2023-10-22T09:02:37.060Z,12.26
2023-10-22T09:05:13.352Z,12.26
2023-10-22T09:07:56.645Z,12.25
2023-10-22T09:10:33.204Z,12.23
2023-10-22T09:13:22.750Z,12.32
2023-10-22T09:15:58.803Z,12.39
2023-10-22T09:18:31.833Z,12.42
2023-10-22T09:21:10.085Z,12.46
2023-10-22T09:23:44.098Z,12.52
2023-10-22T09:26:17.418Z,12.53
2023-10-22T09:29:07.243Z,12.56
2023-10-22T09:31:39.800Z,12.58
2023-10-22T09:34:27.981Z,12.61
2023-10-22T09:37:01.592Z,12.63
2023-10-22T09:39:39.214Z,12.65
2023-10-22T09:42:17.520Z,12.67
2023-10-22T09:44:51.483Z,12.62
2023-10-22T09:47:26.749Z,12.61
2023-10-22T09:50:05.858Z,12.69
2023-10-22T09:52:44.412Z,12.76
2023-10-22T09:55:18.581Z,12.83
2023-10-22T09:57:52.470Z,12.90
2023-10-22T10:00:33.001Z,12.93
2023-10-22T10:03:12.934Z,12.98
2023-10-22T10:05:46.067Z,13.02
2023-10-22T10:08:19.723Z,13.07
2023-10-22T10:10:52.599Z,13.13
2023-10-22T10:13:25.157Z,13.17
2023-10-22T10:16:04.865Z,13.16
2023-10-22T10:19:05.209Z,13.19
2023-10-22T10:21:50.397Z,13.20
2023-10-22T10:24:28.244Z,13.21
2023-10-22T10:27:28.011Z,13.27
2023-10-22T10:30:21.832Z,13.30
2023-10-22T10:33:11.318Z,13.31
2023-10-22T10:35:49.364Z,13.23
2023-10-22T10:38:26.568Z,13.24
2023-10-22T10:40:59.645Z,13.18
2023-10-22T10:44:07.344Z,13.13
2023-10-22T10:46:39.954Z,13.09
2023-10-22T10:49:13.533Z,13.08
2023-10-22T10:52:02.102Z,13.13
2023-10-22T10:54:37.121Z,13.19
2023-10-22T10:57:10.338Z,13.22
2023-10-22T10:59:42.824Z,13.24
2023-10-22T11:02:16.284Z,13.24
2023-10-22T11:04:50.083Z,13.28
2023-10-22T11:07:27.187Z,13.33
2023-10-22T11:10:00.374Z,13.34
2023-10-22T11:12:33.411Z,13.30
2023-10-22T11:15:09.131Z,13.28
2023-10-22T11:17:44.228Z,13.27
2023-10-22T11:20:18.007Z,13.33
2023-10-22T11:22:50.476Z,13.36
2023-10-22T11:25:24.471Z,13.39
2023-10-22T11:27:57.729Z,13.39
2023-10-22T11:30:41.029Z,13.38
2023-10-22T11:33:30.241Z,13.39
2023-10-22T11:36:03.394Z,13.39
2023-10-22T11:38:42.906Z,13.44
2023-10-22T11:41:18.971Z,13.51
2023-10-22T11:43:53.477Z,13.55
2023-10-22T11:46:44.649Z,13.58
2023-10-22T11:49:19.525Z,13.63
2023-10-22T11:51:52.065Z,13.67
2023-10-22T11:54:44.308Z,13.65
2023-10-22T11:57:19.391Z,13.67
2023-10-22T11:59:51.884Z,13.73
2023-10-22T12:02:24.437Z,13.80
2023-10-22T12:04:56.922Z,13.84
2023-10-22T12:07:29.413Z,13.85
2023-10-22T12:10:01.996Z,13.86
2023-10-22T12:12:34.845Z,13.92
2023-10-22T12:15:10.255Z,13.91
2023-10-22T12:17:43.079Z,13.94
2023-10-22T12:20:16.509Z,13.97
2023-10-22T12:22:49.655Z,13.93
2023-10-22T12:25:22.162Z,13.99
2023-10-22T12:27:55.086Z,14.06
2023-10-22T12:30:28.255Z,14.12
2023-10-22T12:33:01.086Z,14.19
2023-10-22T12:35:33.865Z,14.22
2023-10-22T12:38:06.378Z,14.27
2023-10-22T12:40:40.016Z,14.30
2023-10-22T12:43:12.582Z,14.35
2023-10-22T12:45:45.381Z,14.39
2023-10-22T12:48:18.124Z,14.38
2023-10-22T12:50:53.871Z,14.41
2023-10-22T12:53:26.771Z,14.38
2023-10-22T12:56:00.154Z,14.33
2023-10-22T12:58:33.571Z,14.35
2023-10-22T13:01:09.069Z,14.37
2023-10-22T13:03:41.790Z,14.36
2023-10-22T13:06:14.618Z,14.29
2023-10-22T13:08:47.218Z,14.20
2023-10-22T13:11:22.364Z,14.24
2023-10-22T13:13:55.057Z,14.29
2023-10-22T13:16:27.621Z,14.34
2023-10-22T13:19:00.268Z,14.34
2023-10-22T13:21:32.974Z,14.36
2023-10-22T13:24:06.532Z,14.41
2023-10-22T13:26:39.163Z,14.41
2023-10-22T13:29:13.106Z,14.39
2023-10-22T13:31:45.694Z,14.37
2023-10-22T13:34:18.332Z,14.30
2023-10-22T13:36:50.797Z,14.27
2023-10-22T13:39:23.667Z,14.26
2023-10-22T13:41:56.211Z,14.26
2023-10-22T13:44:28.937Z,14.25
2023-10-22T13:47:01.363Z,14.26
2023-10-22T13:49:34.348Z,14.21
2023-10-22T13:52:07.347Z,14.22
2023-10-22T13:54:40.222Z,14.23
2023-10-22T13:57:12.938Z,14.23
2023-10-22T13:59:45.530Z,14.23
2023-10-22T14:02:18.039Z,14.26
2023-10-22T14:04:50.864Z,14.27
2023-10-22T14:07:23.427Z,14.25
2023-10-22T14:09:55.932Z,14.28
2023-10-22T14:12:28.502Z,14.30
2023-10-22T14:15:01.228Z,14.30
2023-10-22T14:17:34.145Z,14.29
2023-10-22T14:20:08.060Z,14.28
2023-10-22T14:22:40.629Z,14.30
2023-10-22T14:25:13.465Z,14.30
2023-10-22T14:27:47.621Z,14.32
2023-10-22T14:30:21.701Z,14.30
2023-10-22T14:32:54.735Z,14.30
2023-10-22T14:35:28.346Z,14.29
2023-10-22T14:38:00.911Z,14.30
2023-10-22T14:40:33.689Z,14.30
2023-10-22T14:43:06.478Z,14.30
2023-10-22T14:45:38.996Z,14.31
2023-10-22T14:48:12.271Z,14.33
2023-10-22T14:50:53.580Z,14.34
2023-10-22T14:53:26.510Z,14.35
2023-10-22T14:56:00.577Z,14.37
2023-10-22T14:58:34.142Z,14.36
2023-10-22T15:01:09.168Z,14.36
2023-10-22T15:03:41.920Z,14.35
2023-10-22T15:06:15.025Z,14.35
2023-10-22T15:08:47.553Z,14.35
2023-10-22T15:11:22.080Z,14.34
2023-10-22T15:13:55.490Z,14.34
2023-10-22T15:16:28.112Z,14.33
2023-10-22T15:19:01.041Z,14.33
2023-10-22T15:21:33.566Z,14.31
2023-10-22T15:24:06.639Z,14.30
2023-10-22T15:26:39.735Z,14.28
2023-10-22T15:29:12.585Z,14.26
2023-10-22T15:31:45.606Z,14.24
2023-10-22T15:34:18.073Z,14.22
2023-10-22T15:36:50.557Z,14.20
2023-10-22T15:39:23.121Z,14.18
2023-10-22T15:41:56.205Z,14.16
2023-10-22T15:44:28.790Z,14.15
2023-10-22T15:47:01.835Z,14.15
2023-10-22T15:49:34.367Z,14.14
2023-10-22T15:52:07.632Z,14.14
2023-10-22T15:54:40.265Z,14.13
2023-10-22T15:57:13.231Z,14.10
2023-10-22T15:59:45.728Z,14.07
2023-10-22T16:02:18.558Z,14.07
2023-10-22T16:04:51.434Z,14.05
2023-10-22T16:07:24.947Z,14.05
2023-10-22T16:09:57.571Z,14.04
2023-10-22T16:12:30.180Z,14.02
2023-10-22T16:15:02.734Z,14.00
2023-10-22T16:17:41.155Z,13.98
2023-10-22T16:20:15.453Z,13.96
2023-10-22T16:22:48.052Z,13.96
2023-10-22T16:25:20.653Z,13.97
2023-10-22T16:27:53.228Z,13.95
2023-10-22T16:30:26.818Z,13.94
2023-10-22T16:32:59.691Z,13.93
2023-10-22T16:35:33.590Z,13.93
2023-10-22T16:38:07.007Z,13.91
2023-10-22T16:40:41.898Z,13.91
2023-10-22T16:43:14.535Z,13.88
2023-10-22T16:45:51.003Z,13.86
2023-10-22T16:48:23.902Z,13.87
2023-10-22T16:51:03.633Z,13.85
2023-10-22T16:53:36.436Z,13.84
2023-10-22T16:56:09.750Z,13.85
2023-10-22T16:58:42.694Z,13.83
2023-10-22T17:01:15.279Z,13.83
2023-10-22T17:03:47.993Z,13.84
2023-10-22T17:06:20.739Z,13.82
2023-10-22T17:08:54.092Z,13.83
2023-10-22T17:11:27.273Z,13.84
2023-10-22T17:13:59.800Z,13.80
2023-10-22T17:16:32.435Z,13.80
2023-10-22T17:19:05.388Z,13.80
2023-10-22T17:21:38.203Z,13.78
2023-10-22T17:24:11.755Z,13.74
2023-10-22T17:26:44.802Z,13.73
2023-10-22T17:29:17.797Z,13.74
2023-10-22T17:31:50.316Z,13.75
2023-10-22T17:34:23.210Z,13.74
2023-10-22T17:36:55.941Z,13.73
2023-10-22T17:39:28.785Z,13.72
2023-10-22T17:42:01.535Z,13.71
2023-10-22T17:44:34.144Z,13.69
2023-10-22T17:47:08.446Z,13.69
2023-10-22T17:49:44.772Z,13.68
2023-10-22T17:52:17.311Z,13.63
2023-10-22T17:54:51.988Z,13.62
2023-10-22T17:57:24.584Z,13.63
2023-10-22T17:59:59.627Z,13.61
2023-10-22T18:02:32.193Z,13.63
2023-10-22T18:05:06.213Z,13.58
2023-10-22T18:07:38.777Z,13.55
2023-10-22T18:10:12.649Z,13.50
2023-10-22T18:12:45.427Z,13.45
2023-10-22T18:15:18.178Z,13.41
2023-10-22T18:17:50.773Z,13.38
2023-10-22T18:20:33.197Z,13.37
2023-10-22T18:23:06.552Z,13.33
2023-10-22T18:25:39.929Z,13.29
2023-10-22T18:28:12.548Z,13.23
2023-10-22T18:30:45.747Z,13.19
2023-10-22T18:33:18.778Z,13.12
2023-10-22T18:35:51.402Z,13.11
2023-10-22T18:38:24.121Z,13.07
2023-10-22T18:40:56.755Z,13.03
2023-10-22T18:43:29.893Z,13.03
2023-10-22T18:46:03.102Z,13.01
2023-10-22T18:48:36.146Z,13.00
2023-10-22T18:51:09.505Z,13.01
2023-10-22T18:53:43.876Z,12.93
2023-10-22T18:56:16.670Z,12.85
2023-10-22T18:58:50.410Z,12.82
2023-10-22T19:01:27.365Z,12.80
2023-10-22T19:04:02.077Z,12.78
2023-10-22T19:06:35.964Z,12.75
2023-10-22T19:09:08.814Z,12.71
2023-10-22T19:11:41.443Z,12.69
2023-10-22T19:14:18.993Z,12.67
2023-10-22T19:16:51.550Z,12.68
2023-10-22T19:19:24.572Z,12.68
2023-10-22T19:21:59.120Z,12.70
2023-10-22T19:24:33.683Z,12.69
2023-10-22T19:27:06.968Z,12.68
2023-10-22T19:29:41.605Z,12.71
2023-10-22T19:32:14.094Z,12.71
2023-10-22T19:34:46.560Z,12.72
2023-10-22T19:37:19.712Z,12.73
2023-10-22T19:39:52.770Z,12.74
2023-10-22T19:42:25.629Z,12.74
2023-10-22T19:44:58.477Z,12.74
2023-10-22T19:47:31.178Z,12.76
2023-10-22T19:50:06.374Z,12.78
2023-10-22T19:52:41.403Z,12.80
2023-10-22T19:55:14.711Z,12.80
2023-10-22T19:57:47.300Z,12.79
2023-10-22T20:00:20.440Z,12.77
2023-10-22T20:02:53.416Z,12.75
2023-10-22T20:05:26.423Z,12.77
2023-10-22T20:07:58.870Z,12.75
2023-10-22T20:10:42.555Z,12.76
2023-10-22T20:13:16.103Z,12.77
2023-10-22T20:15:50.284Z,12.77
2023-10-22T20:18:22.900Z,12.78
2023-10-22T20:20:55.495Z,12.80
2023-10-22T20:23:28.052Z,12.81
2023-10-22T20:26:00.886Z,12.80
2023-10-22T20:28:33.492Z,12.80
2023-10-22T20:31:06.181Z,12.80
2023-10-22T20:33:38.920Z,12.80
2023-10-22T20:36:12.871Z,12.80
2023-10-22T20:38:45.718Z,12.79
2023-10-22T20:41:19.452Z,12.79
2023-10-22T20:43:52.442Z,12.79
2023-10-22T20:46:24.925Z,12.77
2023-10-22T20:48:58.276Z,12.77
2023-10-22T20:51:30.885Z,12.76
2023-10-22T20:54:04.178Z,12.75
2023-10-22T20:56:36.903Z,12.74
2023-10-22T20:59:09.707Z,12.73
2023-10-22T21:01:42.223Z,12.73
2023-10-22T21:04:14.852Z,12.73
2023-10-22T21:06:47.953Z,12.70
2023-10-22T21:09:20.631Z,12.70
2023-10-22T21:11:53.695Z,12.70
2023-10-22T21:14:27.105Z,12.69
2023-10-22T21:17:00.275Z,12.68
2023-10-22T21:19:32.820Z,12.66
2023-10-22T21:22:05.543Z,12.66
2023-10-22T21:24:38.348Z,12.65
2023-10-22T21:27:11.263Z,12.63
2023-10-22T21:29:44.764Z,12.63
2023-10-22T21:32:17.290Z,12.61
2023-10-22T21:34:50.394Z,12.59
2023-10-22T21:37:22.936Z,12.57
2023-10-22T21:39:55.941Z,12.56
2023-10-22T21:42:28.968Z,12.54
2023-10-22T21:45:01.459Z,12.52
2023-10-22T21:47:34.551Z,12.50
2023-10-22T21:50:08.114Z,12.50
2023-10-22T21:52:40.667Z,12.49
2023-10-22T21:55:19.540Z,12.49
2023-10-22T21:57:52.480Z,12.46
2023-10-22T22:00:25.822Z,12.45
2023-10-22T22:02:58.625Z,12.43
2023-10-22T22:05:31.835Z,12.40
2023-10-22T22:08:04.918Z,12.40
2023-10-22T22:10:38.085Z,12.40
2023-10-22T22:13:11.145Z,12.39
2023-10-22T22:15:43.719Z,12.38
2023-10-22T22:18:16.760Z,12.37
2023-10-22T22:20:49.325Z,12.36
2023-10-22T22:23:24.321Z,12.31
2023-10-22T22:25:56.927Z,12.26
2023-10-22T22:28:29.477Z,12.28
2023-10-22T22:31:03.911Z,12.27
2023-10-22T22:33:36.616Z,12.25
2023-10-22T22:36:10.140Z,12.26
2023-10-22T22:38:42.853Z,12.28
2023-10-22T22:41:15.864Z,12.25
2023-10-22T22:43:48.393Z,12.20
2023-10-22T22:46:21.405Z,12.17
2023-10-22T22:48:54.968Z,12.12
2023-10-22T22:51:28.084Z,12.14
2023-10-22T22:54:00.615Z,12.16
2023-10-22T22:56:33.266Z,12.17
2023-10-22T22:59:06.214Z,12.19
2023-10-22T23:01:40.793Z,12.17
2023-10-22T23:04:13.708Z,12.15
2023-10-22T23:06:46.603Z,12.14
2023-10-22T23:09:19.159Z,12.14
2023-10-22T23:11:51.681Z,12.08
2023-10-22T23:14:24.182Z,12.05
2023-10-22T23:16:56.676Z,12.05
2023-10-22T23:19:29.449Z,12.04
2023-10-22T23:22:02.248Z,12.03
2023-10-22T23:24:34.787Z,12.04
2023-10-22T23:27:08.216Z,12.04
2023-10-22T23:29:43.168Z,12.04
2023-10-22T23:32:15.695Z,12.02
2023-10-22T23:34:48.121Z,11.98
2023-10-22T23:37:20.656Z,11.98
2023-10-22T23:39:53.374Z,11.99
2023-10-22T23:42:26.040Z,11.98
2023-10-22T23:44:58.521Z,11.98
2023-10-22T23:47:31.636Z,11.98
2023-10-22T23:50:04.537Z,11.98
2023-10-22T23:52:37.331Z,11.98
2023-10-22T23:55:10.909Z,11.98
2023-10-22T23:57:43.650Z,11.98
